メインページ
METAR-TAF:

METAR-TAF

空港 :

Bradford, ペンシルバニア州, アメリカ合衆国

緯度: 41-47-55N, 経度: 078-38-09W, 海抜: 653m

現時点の気象観測

当レポートは34分前の19:53(UTC)に作成
西/北西の風 6kt
気温 -2°C
湿度 59%
気圧 1027 hPa
視程: 16.1km
晴天

METAR: KBFD 071953Z AUTO 29006KT 10SM CLR M02/M09 A3033 RMK AO2 SLP294 T10221094

時間: 15:27 (20:27 UTC)

予報

当レポートは2時間44分前の17:43(UTC)に作成
予報は07日の 18時(UTC)から 08日の 18時(UTC)まで有効
西/北西の風 8kt
視程: 10km
高度3000ftの千切れ雲あり
07日の 1900時(UTC)から
西の風 7kt
視程: 10km
高度3000ftの雲は散在している
08日の 0100時(UTC)から
の風 3kt
視程: 10km
高度25000ftの千切れ雲あり
08日の 1400時(UTC)から
の風 11kt、最大19ktの突風を伴う
視程: 10km
高度3000ftの雲は散在している
高度25000ftの千切れ雲あり

TAF: KBFD 071743Z 0718/0818 29008KT P6SM BKN030 FM071900 27007KT P6SM SCT030 FM080100 17003KT P6SM BKN250 FM081400 17011G19KT P6SM SCT030 BKN250

4,000以上の空港の気象観測と天気予報(METAR報とTAF報)

利用可能な観測所は地図上に黄色い丸と赤い丸で示す。

丸の上にカーソルを重ねると観測所名を参照できる。

次にクリックすると気象観測と天気予報を参照できる。

マップの切り替え:黒色「×」印の緑ボタンをクリックして拡大、「-」印の緑ボタンをクリックして縮小、緑色の三角印をクリックして隣りの地図に切り替え


METAR-TAF: